Portada
METAR-TAF:

METAR-TAF

Aeropuertos :

Alva Regional Airport

Alva, Oklahoma, Estados Unidos

latitud: 36-46-23N, longitud: 098-40-12W, altitud: 449 m

Observación

El informe se hizo hace 22 minutos, a las 05:35 UTC
Viento 10 kt del sur-sureste
Temperatura 27°C
Humedad 66%
Presión 1012 hPa
Visibilidad: 16.1 km
Cielo despejado

METAR: KAVK 070535Z AUTO 16010KT 10SM CLR 27/20 A2988 RMK AO2 PWINO TSNO

Hora: 00:57 (05:57 UTC)


TAF: falta

Observaciones y pronósticos meteorológicos de más de 4000 aeropuertos (mensajes METAR y TAF).

Los puntos amarillos y rojos representan las estaciones disponibles.

Ponga el ratón en el punto deseado para ver el nombre de la estación.

Haga clic para ver las observaciones y los pronósticos meteorológicos.

Para cambiar el mapa : haga clic en los botones verdes con una cruz de color negro para hacer un zoom, en el botón verde con un guión para alejar o en las flechas verdes para mapas adyacentes.


METAR-TAF: